createdAt,value
2017-08-10T00:06:34.475Z,0
2017-08-10T00:16:49.211Z,0
2017-08-10T00:27:04.034Z,0
2017-08-10T00:37:17.817Z,0
2017-08-10T00:47:31.809Z,0
2017-08-10T00:57:46.520Z,0
2017-08-10T01:08:01.357Z,0
2017-08-10T01:18:16.316Z,0
2017-08-10T01:28:31.282Z,0
2017-08-10T01:38:46.084Z,0
2017-08-10T01:49:01.505Z,0
2017-08-10T01:59:16.224Z,0
2017-08-10T02:09:31.222Z,0
2017-08-10T02:19:46.275Z,0
2017-08-10T02:30:00.877Z,0
2017-08-10T02:40:15.962Z,0
2017-08-10T02:50:29.846Z,0
2017-08-10T03:00:43.886Z,0
2017-08-10T03:10:58.328Z,0
2017-08-10T03:21:13.836Z,0
2017-08-10T03:31:29.327Z,0
2017-08-10T03:41:44.519Z,4
2017-08-10T03:52:00.145Z,20
2017-08-10T04:02:15.177Z,92
2017-08-10T04:12:29.337Z,388
2017-08-10T04:22:43.603Z,532
2017-08-10T04:32:58.462Z,996
2017-08-10T04:43:13.637Z,1148
2017-08-10T04:53:28.924Z,1492
2017-08-10T05:03:43.392Z,2256
2017-08-10T05:13:57.722Z,3712
2017-08-10T05:24:12.190Z,5032
2017-08-10T05:34:25.989Z,6608
2017-08-10T05:44:41.073Z,6556
2017-08-10T05:54:56.060Z,6308
2017-08-10T06:05:11.130Z,8900
2017-08-10T06:15:26.279Z,14080
2017-08-10T06:25:40.805Z,14348
2017-08-10T06:35:55.344Z,13940
2017-08-10T06:46:10.217Z,13268
2017-08-10T06:56:25.256Z,7404
2017-08-10T07:06:39.485Z,8476
2017-08-10T07:16:54.084Z,7528
2017-08-10T07:27:09.124Z,10132
2017-08-10T07:37:23.646Z,8684
2017-08-10T07:47:38.812Z,8504
2017-08-10T07:57:52.969Z,7128
2017-08-10T08:08:07.694Z,8316
2017-08-10T08:18:22.764Z,8828
2017-08-10T08:28:36.989Z,14468
2017-08-10T08:38:51.585Z,13400
2017-08-10T08:49:05.495Z,13484
2017-08-10T08:59:19.417Z,17344
2017-08-10T09:09:34.231Z,16408
2017-08-10T09:19:48.186Z,21920
2017-08-10T09:30:03.879Z,37760
2017-08-10T09:40:19.176Z,32928
2017-08-10T09:50:33.946Z,58400
2017-08-10T10:00:49.103Z,83328
2017-08-10T10:11:03.647Z,36160
2017-08-10T10:21:19.469Z,40800
2017-08-10T10:31:35.092Z,62208
2017-08-10T10:41:49.485Z,54560
2017-08-10T10:52:03.658Z,37824
2017-08-10T11:02:17.751Z,32928
2017-08-10T11:12:33.107Z,26336
2017-08-10T11:22:47.365Z,24896
2017-08-10T11:33:01.588Z,35584
2017-08-10T11:43:17.302Z,31584
2017-08-10T11:53:31.461Z,24896
2017-08-10T12:03:47.240Z,26144
2017-08-10T12:14:02.701Z,26432
2017-08-10T12:24:17.258Z,26112
2017-08-10T12:34:32.194Z,29024
2017-08-10T12:44:47.163Z,40288
2017-08-10T12:55:01.988Z,35232
2017-08-10T13:05:17.827Z,30688
2017-08-10T13:15:32.867Z,22624
2017-08-10T13:25:48.623Z,19968
2017-08-10T13:36:04.172Z,16832
2017-08-10T13:46:19.233Z,14708
2017-08-10T13:56:34.117Z,16744
2017-08-10T14:06:48.126Z,18144
2017-08-10T14:17:03.731Z,17312
2017-08-10T14:27:19.243Z,15280
2017-08-10T14:37:33.980Z,20064
2017-08-10T14:47:48.608Z,21760
2017-08-10T14:58:04.232Z,12252
2017-08-10T15:08:19.017Z,9452
2017-08-10T15:18:33.470Z,5684
2017-08-10T15:28:48.567Z,5572
2017-08-10T15:39:03.634Z,5236
2017-08-10T15:49:18.030Z,4420
2017-08-10T15:59:33.931Z,4408
2017-08-10T16:09:47.550Z,4364
2017-08-10T16:20:01.637Z,6508
2017-08-10T16:30:15.660Z,8092
2017-08-10T16:40:29.632Z,5052
2017-08-10T16:50:44.734Z,3404
2017-08-10T17:00:59.038Z,4068
2017-08-10T17:11:13.594Z,3900
2017-08-10T17:21:28.950Z,1008
2017-08-10T17:31:44.732Z,1196
2017-08-10T17:42:00.186Z,1136
2017-08-10T17:52:15.240Z,620
2017-08-10T18:02:30.603Z,444
2017-08-10T18:12:44.685Z,1936
2017-08-10T18:22:59.912Z,1008
2017-08-10T18:33:13.967Z,424
2017-08-10T18:43:29.057Z,52
2017-08-10T18:53:44.495Z,24
2017-08-10T19:03:59.455Z,12
2017-08-10T19:14:14.114Z,8
2017-08-10T19:24:29.237Z,4
2017-08-10T19:34:44.652Z,0
2017-08-10T19:44:59.567Z,0
2017-08-10T19:55:15.241Z,0
2017-08-10T20:05:29.175Z,0
2017-08-10T20:15:44.752Z,0
2017-08-10T20:26:00.130Z,0
2017-08-10T20:36:15.163Z,0
2017-08-10T20:46:28.961Z,0
2017-08-10T20:56:43.464Z,0
2017-08-10T21:06:58.281Z,0
2017-08-10T21:17:13.421Z,0
2017-08-10T21:27:28.095Z,0
2017-08-10T21:37:42.018Z,0
2017-08-10T21:47:56.015Z,0
2017-08-10T21:58:10.324Z,0
2017-08-10T22:08:25.503Z,0
2017-08-10T22:18:39.891Z,0
2017-08-10T22:28:55.511Z,0
2017-08-10T22:39:10.548Z,0
2017-08-10T22:49:25.612Z,0
2017-08-10T22:59:41.069Z,0
2017-08-10T23:09:56.537Z,0
2017-08-10T23:20:11.641Z,0
2017-08-10T23:30:25.772Z,0
2017-08-10T23:40:40.289Z,0
2017-08-10T23:50:55.339Z,0
